»·PEaware :: N733XE KSNA-KSNA

N733XE :: KSNA-KSNA

FLIGHT INFORMATION

Flight Status: Arrived
Operator: Privately registered:
United States
More flights under this callsign
Pilot: John A. (34961)
Aircraft: CESSNA 172 SKYHAWK
(C172)
More flights by this aircraft type
Origin: KSNA John Wayne-Orange Co
United States
Destination: KSNA John Wayne-Orange Co
United States
More flights between these airports :: More routes between these airports
Route: SLI
File this flight plan on PilotEdge
Remarks: Practice I-1
Altitude:
(Current/Filed)
3,000ft
Speed:
(Current/Filed)
115kts
Departed: 19-Nov-22 07:49 PM
Arrived: 19-Nov-22 08:09 PM
Distance/Time
Traveled:
0nm/0:20
Distance/Time
To Go:
Arrived

Flight Plot

Page will automatically refresh every two minutes.


Map Options




Map Legend


Flown Route
Filed Route
Departure Airport
Arrival Airport
Navaid (VOR, NDB)
Fix

Horizontal Profiles

Position Reports

Time Latitude Longitude Heading Altitude Ground
Speed
19-Nov-22 19:23 33.671187 -117.868030 213 60ft 0kts
19-Nov-22 19:25 33.671187 -117.868030 213 60ft 0kts
19-Nov-22 19:26 33.671187 -117.868030 213 60ft 0kts
19-Nov-22 19:27 33.671187 -117.868030 213 60ft 0kts
19-Nov-22 19:28 33.671187 -117.868030 213 60ft 0kts
19-Nov-22 19:29 33.671187 -117.868030 213 60ft 0kts
19-Nov-22 19:30 33.671187 -117.868030 213 60ft 0kts
19-Nov-22 19:31 33.671187 -117.868030 213 60ft 0kts
19-Nov-22 19:32 33.671187 -117.868030 213 60ft 0kts
19-Nov-22 19:33 33.671187 -117.868030 213 60ft 0kts
19-Nov-22 19:34 33.671187 -117.868030 213 60ft 0kts
19-Nov-22 19:35 33.671187 -117.868030 213 60ft 0kts
19-Nov-22 19:36 33.671187 -117.868030 213 60ft 0kts
19-Nov-22 19:37 33.671187 -117.868030 213 60ft 0kts
19-Nov-22 19:38 33.671187 -117.868030 213 60ft 0kts
19-Nov-22 19:39 33.671187 -117.868030 213 60ft 0kts
19-Nov-22 19:40 33.671187 -117.868030 213 60ft 0kts
19-Nov-22 19:41 33.671187 -117.868030 213 60ft 0kts
19-Nov-22 19:42 33.671187 -117.868030 213 60ft 0kts
19-Nov-22 19:43 33.672555 -117.867860 30 60ft 16kts
19-Nov-22 19:44 33.673749 -117.867275 294 60ft 0kts
19-Nov-22 19:45 33.673749 -117.867275 294 60ft 0kts
19-Nov-22 19:46 33.673749 -117.867275 294 60ft 0kts
19-Nov-22 19:47 33.673749 -117.867275 294 60ft 0kts
19-Nov-22 19:48 33.673749 -117.867275 294 60ft 0kts
19-Nov-22 19:49 33.681967 -117.863076 28 280ft 73kts
19-Nov-22 19:50 33.700377 -117.850007 29 1215ft 76kts
19-Nov-22 19:50 33.707972 -117.861319 259 1936ft 79kts
19-Nov-22 19:51 33.704575 -117.893741 265 2617ft 97kts
19-Nov-22 19:53 33.728039 -117.907781 24 3047ft 124kts
19-Nov-22 19:54 33.760521 -117.890368 26 3079ft 132kts
19-Nov-22 19:55 33.794356 -117.871497 24 3019ft 134kts
19-Nov-22 19:55 33.822291 -117.857011 21 3079ft 132kts
19-Nov-22 19:56 33.856753 -117.841741 18 3107ft 132kts
19-Nov-22 19:57 33.888164 -117.825549 34 3062ft 108kts
19-Nov-22 19:59 33.895071 -117.784161 92 3059ft 106kts
19-Nov-22 20:00 33.890770 -117.748420 145 3074ft 102kts
19-Nov-22 20:00 33.865118 -117.752811 202 3034ft 106kts
19-Nov-22 20:01 33.837316 -117.764968 205 3048ft 106kts
19-Nov-22 20:02 33.810452 -117.783291 211 3036ft 105kts
19-Nov-22 20:03 33.784183 -117.801516 206 2519ft 107kts
19-Nov-22 20:04 33.760675 -117.815882 203 1972ft 93kts
19-Nov-22 20:05 33.736098 -117.831143 208 1162ft 99kts
19-Nov-22 20:06 33.713641 -117.845203 207 830ft 91kts
19-Nov-22 20:07 33.689758 -117.859915 209 329ft 76kts
19-Nov-22 20:08 33.678062 -117.868353 280 60ft 14kts
19-Nov-22 20:09 33.675721 -117.870289 206 60ft 26kts
19-Nov-22 20:10 33.672930 -117.872709 82 60ft 0kts
19-Nov-22 20:11 33.672930 -117.872709 82 60ft 0kts
19-Nov-22 20:12 33.672930 -117.872709 82 60ft 0kts

Navigation Log

Ident Type
Flight plan parsing failed, navigation log unavailable